Holloman AFB, New Mexico
Current Conditions -  °F | °C
As of 1:58 AM on Friday 28 Nov 2014 (Local Time) from KHMN Reporting Station
Clear Clear  
Wind Chill: 33°   Ceiling: Unl
Heat Index: 33°   Visibility: 10mi
Dew Point: 18°   Wind: 3mph
Humidity: 56%   Direction: 350°N
Pressure: 30.28"   Gusts: NA
Location:  32.85°N, 106.1°W
Report Text: KHMN 280858Z AUTO 35003KT 10SM CLR 00/M08 A3028 RMK AO2 SLP225 T00031076 57004 $
Loading
Personal Weather Stations






























Interactive Weather Map New forecast layout! Learn more

10-Day Weather Forecast

Advertisements
Track Severe Weather on mobile